Startpagina
METAR-TAF:

METAR-TAF

Vliegvelden :

Aéroport de Poitiers-Biard

Poitiers, Frankrijk

breedte: 46-35N, lengte: 000-19E, hoogte: 129 m

Actueel weer

Dit bericht is 30 minuten geleden gemaakt, om 02:00 UTC
Wind 6 kt uit het zuidzuidoosten
Temperatuur 18°C
Vochtigheid 73%
Druk 1013 hPa
Zicht 10 km of meer
geen wolken onder 1500 m en geen cumulonimbus

METAR: LFBI 210200Z AUTO 16006KT CAVOK 18/13 Q1013 NOSIG

Tijdstip: 04:30 (02:30 UTC)

Verwachting

Dit bericht is 3 uur en het 30 minuten geleden gemaakt, om 23:00 UTC
Verwachting geldig van 21 om 00 UTC tot 21 om 24 UTC
Wind 8 kt uit het zuidzuidoosten
Zicht 10 km of meer
geen wolken onder 1500 m en geen cumulonimbus
Kans 30% :
Tijdelijke
van 21 om 14 UTC tot 21 om 19 UTC
Wind 15 kt uit het zuiden met uitschieters tot 25 kt
Zicht: 4000 m
Gebroken wolken op 6000 ft, Cumulonimbus.
onweer, lichte regen

TAF: LFBI 202300Z 2100/2124 16008KT CAVOK PROB30 TEMPO 2114/2119 17015G25KT 4000 -TSRA BKN060CB

Waarnemingen en weersverwachtingen van meer dan 4000 vliegvelden (METAR en TAF).

De beschikbare stations zijn de gele en rode punten op de kaart.

Ga met uw muis naar het station om de naam te zien.

Klik dan om waarnemingen en weersverwachtingen te zien.

kaart wijzigen: klik op de groene knoppen met een zwart kruis om in te zoomen, op de groene knop met een streepje om uit te zoomen of op de groene pijlen voor aangrenzende kaarten.


METAR-TAF: